createdAt,value
2023-02-13T00:00:36.511Z,24.20
2023-02-13T00:03:07.113Z,21.50
2023-02-13T00:05:34.499Z,21.10
2023-02-13T00:08:01.400Z,17.67
2023-02-13T00:10:28.627Z,20.90
2023-02-13T00:12:56.403Z,15.70
2023-02-13T00:15:23.742Z,16.05
2023-02-13T00:17:50.791Z,13.18
2023-02-13T00:20:18.792Z,18.77
2023-02-13T00:22:46.643Z,19.30
2023-02-13T00:25:13.622Z,15.73
2023-02-13T00:27:42.209Z,15.40
2023-02-13T00:30:09.608Z,15.93
2023-02-13T00:32:36.509Z,15.90
2023-02-13T00:35:06.728Z,12.45
2023-02-13T00:37:35.283Z,11.60
2023-02-13T00:40:02.251Z,12.68
2023-02-13T00:42:29.200Z,11.30
2023-02-13T00:44:56.448Z,11.95
2023-02-13T00:47:24.436Z,10.57
2023-02-13T00:49:51.358Z,10.23
2023-02-13T00:52:18.442Z,8.90
2023-02-13T00:54:47.106Z,8.82
2023-02-13T00:57:13.968Z,7.78
2023-02-13T00:59:42.914Z,8.52
2023-02-13T01:02:09.726Z,8.35
2023-02-13T01:04:36.720Z,8.63
2023-02-13T01:07:06.170Z,8.00
2023-02-13T01:09:33.484Z,10.10
2023-02-13T01:12:01.704Z,9.10
2023-02-13T01:14:29.184Z,9.10
2023-02-13T01:16:56.337Z,7.93
2023-02-13T01:19:24.318Z,8.07
2023-02-13T01:21:53.283Z,8.27
2023-02-13T01:24:21.237Z,8.63
2023-02-13T01:26:49.815Z,14.23
2023-02-13T01:29:16.661Z,16.98
2023-02-13T01:31:43.623Z,11.15
2023-02-13T01:34:11.884Z,9.95
2023-02-13T01:36:41.934Z,8.57
2023-02-13T01:39:13.404Z,7.35
2023-02-13T01:41:40.736Z,7.82
2023-02-13T01:44:46.405Z,10.25
2023-02-13T01:47:22.424Z,15.88
2023-02-13T01:49:55.025Z,18.55
2023-02-13T01:52:21.976Z,14.70
2023-02-13T01:54:48.936Z,13.23
2023-02-13T01:57:23.225Z,8.90
2023-02-13T02:00:00.979Z,6.90
2023-02-13T02:02:35.009Z,6.22
2023-02-13T02:05:03.760Z,5.82
2023-02-13T02:07:32.364Z,5.93
2023-02-13T02:10:09.693Z,5.50
2023-02-13T02:17:39.496Z,6.97
2023-02-13T02:20:20.922Z,5.90
2023-02-13T02:23:25.236Z,6.18
2023-02-13T02:26:04.940Z,9.55
2023-02-13T02:28:38.018Z,7.25
2023-02-13T02:31:43.425Z,6.55
2023-02-13T02:34:31.687Z,5.93
2023-02-13T02:37:43.879Z,3.85
2023-02-13T02:40:42.634Z,6.03
2023-02-13T02:43:27.924Z,4.93
2023-02-13T02:46:08.062Z,4.03
2023-02-13T02:49:10.459Z,4.00
2023-02-13T02:51:43.871Z,3.72
2023-02-13T02:54:45.156Z,3.30
2023-02-13T02:57:17.553Z,5.60
2023-02-13T03:00:11.909Z,3.72
2023-02-13T03:02:57.460Z,3.60
2023-02-13T03:05:56.739Z,4.72
2023-02-13T03:08:43.803Z,4.32
2023-02-13T03:11:29.452Z,5.90
2023-02-13T03:14:03.634Z,5.45
2023-02-13T03:16:50.061Z,5.88
2023-02-13T03:19:49.687Z,4.40
2023-02-13T03:22:36.815Z,6.30
2023-02-13T03:25:30.455Z,5.57
2023-02-13T03:28:17.878Z,3.90
2023-02-13T03:30:53.528Z,4.80
2023-02-13T03:33:57.257Z,4.18
2023-02-13T03:37:06.926Z,3.88
2023-02-13T03:40:15.937Z,3.83
2023-02-13T03:42:48.891Z,4.63
2023-02-13T03:45:40.468Z,6.67
2023-02-13T03:48:29.838Z,4.03
2023-02-13T03:50:59.532Z,3.80
2023-02-13T03:53:30.164Z,4.28
2023-02-13T03:56:19.421Z,4.25
2023-02-13T03:59:16.206Z,3.63
2023-02-13T04:01:58.598Z,3.35
2023-02-13T04:04:50.335Z,3.08
2023-02-13T04:07:32.358Z,3.30
2023-02-13T04:10:04.705Z,4.30
2023-02-13T04:12:37.776Z,16.90
2023-02-13T04:15:12.856Z,11.80
2023-02-13T04:17:45.592Z,11.65
2023-02-13T04:20:12.921Z,13.52
2023-02-13T04:22:45.010Z,8.52
2023-02-13T04:25:14.161Z,18.58
2023-02-13T04:27:41.150Z,18.02
2023-02-13T04:30:09.358Z,14.18
2023-02-13T04:32:36.478Z,16.13
2023-02-13T04:35:03.709Z,11.10
2023-02-13T04:37:30.599Z,9.48
2023-02-13T04:39:57.395Z,11.07
2023-02-13T04:42:24.263Z,6.32
2023-02-13T04:44:51.033Z,5.38
2023-02-13T04:47:17.832Z,11.32
2023-02-13T04:49:44.621Z,8.57
2023-02-13T04:52:11.463Z,8.77
2023-02-13T04:54:38.245Z,9.40
2023-02-13T04:57:05.061Z,10.20
2023-02-13T04:59:31.880Z,9.98
2023-02-13T05:01:59.510Z,10.38
2023-02-13T05:04:26.515Z,9.38
2023-02-13T05:06:53.332Z,9.70
2023-02-13T05:09:20.088Z,8.90
2023-02-13T05:11:47.114Z,8.10
2023-02-13T05:14:14.169Z,6.60
2023-02-13T05:16:40.975Z,6.15
2023-02-13T05:19:08.515Z,6.10
2023-02-13T05:21:53.955Z,6.10
2023-02-13T05:24:20.821Z,4.88
2023-02-13T05:26:47.985Z,4.90
2023-02-13T05:29:18.829Z,5.53
2023-02-13T05:31:53.302Z,4.60
2023-02-13T05:34:21.714Z,4.70
2023-02-13T05:36:49.189Z,3.72
2023-02-13T05:39:16.224Z,4.28
2023-02-13T05:41:44.417Z,4.55
2023-02-13T05:44:12.578Z,4.75
2023-02-13T05:46:40.793Z,4.65
2023-02-13T05:49:08.929Z,6.68
2023-02-13T05:51:36.073Z,5.80
2023-02-13T05:54:03.022Z,6.20
2023-02-13T05:56:29.815Z,6.80
2023-02-13T05:58:57.071Z,6.38
2023-02-13T06:01:24.908Z,5.68
2023-02-13T06:03:51.995Z,5.25
2023-02-13T06:06:18.914Z,6.10
2023-02-13T06:08:45.778Z,6.05
2023-02-13T06:11:12.707Z,6.32
2023-02-13T06:13:40.941Z,6.88
2023-02-13T06:16:08.942Z,6.80
2023-02-13T06:18:36.099Z,6.15
2023-02-13T06:21:03.511Z,6.90
2023-02-13T06:23:30.503Z,7.32
2023-02-13T06:25:57.417Z,6.85
2023-02-13T06:28:24.400Z,7.03
2023-02-13T06:30:51.259Z,6.60
2023-02-13T06:33:18.128Z,6.65
2023-02-13T06:35:44.872Z,6.63
2023-02-13T06:38:11.877Z,6.38
2023-02-13T06:40:38.662Z,5.82
2023-02-13T06:43:06.010Z,5.75
2023-02-13T06:45:32.962Z,5.75
2023-02-13T06:47:59.820Z,7.07
2023-02-13T06:50:27.032Z,6.85
2023-02-13T06:52:54.008Z,6.55
2023-02-13T06:55:21.228Z,7.32
2023-02-13T06:57:48.303Z,6.82
2023-02-13T07:00:17.523Z,12.73
2023-02-13T07:02:45.882Z,40.03
2023-02-13T07:05:13.402Z,27.13
2023-02-13T07:07:42.538Z,19.90
2023-02-13T07:10:12.137Z,18.52
2023-02-13T07:12:39.249Z,12.15
2023-02-13T07:15:06.963Z,10.25
2023-02-13T07:17:34.100Z,10.27
2023-02-13T07:20:01.100Z,7.97
2023-02-13T07:22:28.114Z,15.77
2023-02-13T07:24:54.908Z,8.80
2023-02-13T07:27:21.689Z,9.35
2023-02-13T07:29:48.517Z,9.23
2023-02-13T07:32:15.308Z,7.70
2023-02-13T07:34:55.755Z,8.93
2023-02-13T07:37:28.666Z,8.85
2023-02-13T07:39:55.553Z,9.45
2023-02-13T07:42:22.497Z,7.60
2023-02-13T07:44:49.556Z,5.93
2023-02-13T07:47:19.031Z,7.32
2023-02-13T07:49:46.870Z,4.45
2023-02-13T07:52:13.668Z,5.75
2023-02-13T07:54:47.745Z,4.15
2023-02-13T07:57:16.229Z,4.57
2023-02-13T07:59:43.242Z,5.15
2023-02-13T08:02:14.614Z,4.70
2023-02-13T08:04:46.446Z,4.95
2023-02-13T08:07:17.594Z,5.30
2023-02-13T08:10:04.521Z,5.57
2023-02-13T08:12:32.657Z,5.40
2023-02-13T08:14:59.452Z,4.90
2023-02-13T08:17:26.434Z,4.07
2023-02-13T08:19:53.269Z,6.30
2023-02-13T08:22:20.419Z,6.80
2023-02-13T08:24:47.187Z,45.67
2023-02-13T08:27:15.576Z,22.60
2023-02-13T08:29:42.432Z,11.90
2023-02-13T08:32:09.665Z,7.30
2023-02-13T08:34:36.829Z,6.13
2023-02-13T08:37:03.932Z,8.48
2023-02-13T08:39:30.836Z,10.77
2023-02-13T08:41:57.682Z,4.40
2023-02-13T08:44:24.480Z,9.32
2023-02-13T08:46:51.294Z,6.40
2023-02-13T08:49:18.352Z,4.68
2023-02-13T08:51:45.179Z,5.10
2023-02-13T08:54:11.943Z,8.95
2023-02-13T08:56:38.701Z,5.22
2023-02-13T08:59:05.496Z,5.20
2023-02-13T09:01:32.405Z,5.60
2023-02-13T09:03:59.210Z,5.93
2023-02-13T09:06:27.792Z,6.90
2023-02-13T09:08:54.862Z,7.97
2023-02-13T09:11:23.738Z,5.93
2023-02-13T09:13:53.634Z,5.00
2023-02-13T09:16:20.943Z,5.43
2023-02-13T09:18:49.240Z,6.95
2023-02-13T09:21:17.615Z,6.25
2023-02-13T09:23:44.551Z,6.30
2023-02-13T09:26:13.818Z,6.20
2023-02-13T09:28:41.753Z,6.10
2023-02-13T09:31:11.090Z,5.22
2023-02-13T09:33:38.498Z,5.47
2023-02-13T09:36:10.890Z,6.18
2023-02-13T09:38:37.829Z,5.53
2023-02-13T09:41:13.247Z,5.35
2023-02-13T09:43:49.776Z,5.20
2023-02-13T09:46:36.889Z,5.30
2023-02-13T09:49:19.768Z,5.60
2023-02-13T09:51:57.387Z,4.93
2023-02-13T09:54:26.800Z,5.00
2023-02-13T09:57:05.213Z,4.45
2023-02-13T09:59:57.279Z,6.25
2023-02-13T10:02:39.050Z,3.92
2023-02-13T10:05:28.056Z,4.18
2023-02-13T10:08:25.713Z,4.78
2023-02-13T10:11:30.243Z,5.15
2023-02-13T10:13:56.982Z,5.18
2023-02-13T10:17:01.366Z,4.78
2023-02-13T10:19:32.124Z,4.40
2023-02-13T10:22:04.893Z,4.68
2023-02-13T10:25:03.018Z,4.85
2023-02-13T10:27:38.714Z,4.70
2023-02-13T10:30:16.456Z,5.88
2023-02-13T10:32:49.638Z,5.13
2023-02-13T10:35:21.466Z,5.38
2023-02-13T10:37:51.330Z,7.07
2023-02-13T10:40:19.208Z,7.00
2023-02-13T10:43:10.195Z,6.10
2023-02-13T10:46:15.773Z,5.75
2023-02-13T10:49:13.562Z,6.03
2023-02-13T10:51:48.497Z,6.13
2023-02-13T10:54:30.908Z,7.95
2023-02-13T10:57:22.703Z,7.53
2023-02-13T11:00:22.593Z,6.47
2023-02-13T11:02:49.546Z,7.70
2023-02-13T11:05:21.160Z,5.50
2023-02-13T11:07:49.130Z,5.43
2023-02-13T11:10:19.718Z,5.88
2023-02-13T11:12:46.796Z,9.40
2023-02-13T11:15:27.541Z,5.65
2023-02-13T11:17:57.975Z,7.00
2023-02-13T11:20:41.436Z,5.90
2023-02-13T11:23:32.253Z,7.65
2023-02-13T11:26:10.054Z,6.70
2023-02-13T11:28:50.068Z,9.98
2023-02-13T11:31:22.668Z,8.98
2023-02-13T11:33:49.994Z,13.23
2023-02-13T11:36:32.303Z,8.73
2023-02-13T11:39:13.356Z,7.28
2023-02-13T11:41:43.856Z,7.03
2023-02-13T11:44:29.312Z,6.78
2023-02-13T11:46:59.168Z,6.63
2023-02-13T11:49:34.930Z,12.20
2023-02-13T11:52:04.303Z,7.72
2023-02-13T11:54:40.289Z,6.60
2023-02-13T11:57:21.639Z,13.95
2023-02-13T11:59:50.712Z,8.73
2023-02-13T12:02:29.924Z,7.28
2023-02-13T12:05:34.556Z,7.30
2023-02-13T12:08:01.925Z,8.70
2023-02-13T12:10:32.020Z,9.00
2023-02-13T12:13:15.565Z,8.23
2023-02-13T12:15:44.843Z,7.45
2023-02-13T12:18:20.138Z,7.25
2023-02-13T12:20:57.979Z,6.97
2023-02-13T12:23:33.188Z,7.30
2023-02-13T12:26:10.878Z,7.32
2023-02-13T12:28:44.878Z,6.80
2023-02-13T12:31:48.985Z,7.05
2023-02-13T12:34:30.233Z,7.93
2023-02-13T12:37:15.622Z,9.32
2023-02-13T12:39:55.670Z,6.82
2023-02-13T12:42:41.244Z,7.05
2023-02-13T12:45:36.027Z,6.82
2023-02-13T12:48:08.806Z,6.97
2023-02-13T12:50:56.740Z,6.82
2023-02-13T12:53:48.406Z,7.07
2023-02-13T12:56:38.011Z,6.45
2023-02-13T12:59:21.526Z,9.68
2023-02-13T13:02:05.147Z,8.90
2023-02-13T13:04:35.015Z,6.57
2023-02-13T13:07:10.946Z,6.43
2023-02-13T13:09:44.603Z,6.88
2023-02-13T13:12:23.757Z,6.82
2023-02-13T13:14:53.759Z,7.50
2023-02-13T13:17:33.526Z,6.30
2023-02-13T13:20:03.515Z,6.85
2023-02-13T13:22:42.037Z,15.65
2023-02-13T13:25:32.916Z,7.85
2023-02-13T13:28:20.885Z,6.63
2023-02-13T13:30:48.637Z,9.25
2023-02-13T13:33:22.662Z,7.63
2023-02-13T13:35:55.873Z,7.45
2023-02-13T13:38:53.113Z,8.32
2023-02-13T13:41:23.314Z,6.60
2023-02-13T13:44:22.424Z,8.27
2023-02-13T13:47:16.991Z,6.63
2023-02-13T13:49:56.069Z,7.22
2023-02-13T13:52:40.023Z,7.10
2023-02-13T13:55:26.991Z,7.40
2023-02-13T13:58:00.916Z,7.20
2023-02-13T14:00:30.660Z,6.55
2023-02-13T14:03:35.015Z,6.07
2023-02-13T14:06:06.112Z,7.45
2023-02-13T14:08:42.265Z,5.75
2023-02-13T14:11:27.590Z,6.38
2023-02-13T14:13:54.866Z,5.70
2023-02-13T14:16:45.783Z,5.88
2023-02-13T14:19:34.874Z,5.68
2023-02-13T14:22:20.219Z,5.93
2023-02-13T14:24:50.921Z,5.78
2023-02-13T14:27:23.565Z,6.07
2023-02-13T14:29:51.023Z,6.20
2023-02-13T14:32:22.975Z,6.63
2023-02-13T14:34:54.411Z,13.10
2023-02-13T14:37:31.086Z,16.27
2023-02-13T14:40:28.897Z,7.32
2023-02-13T14:43:28.007Z,6.45
2023-02-13T14:46:08.245Z,6.15
2023-02-13T14:49:08.699Z,5.75
2023-02-13T14:51:41.684Z,8.60
2023-02-13T14:54:26.594Z,7.88
2023-02-13T14:56:59.815Z,6.72
2023-02-13T14:59:37.246Z,6.60
2023-02-13T15:02:16.711Z,6.28
2023-02-13T15:04:49.009Z,5.93
2023-02-13T15:07:25.554Z,5.88
2023-02-13T15:10:00.551Z,6.40
2023-02-13T15:12:29.368Z,7.00
2023-02-13T15:14:56.732Z,6.68
2023-02-13T15:17:28.756Z,7.88
2023-02-13T15:20:18.221Z,12.27
2023-02-13T15:22:47.292Z,10.65
2023-02-13T15:25:41.843Z,15.13
2023-02-13T15:28:25.026Z,8.07
2023-02-13T15:31:06.417Z,10.97
2023-02-13T15:33:44.803Z,6.78
2023-02-13T15:36:18.469Z,9.52
2023-02-13T15:38:45.783Z,10.10
2023-02-13T15:41:28.166Z,13.88
2023-02-13T15:43:59.693Z,11.88
2023-02-13T15:46:31.110Z,14.50
2023-02-13T15:49:00.937Z,14.93
2023-02-13T15:51:30.886Z,9.57
2023-02-13T15:54:04.563Z,10.02
2023-02-13T15:56:33.034Z,10.73
2023-02-13T15:59:02.134Z,8.60
2023-02-13T16:01:31.270Z,8.80
2023-02-13T16:04:05.477Z,9.63
2023-02-13T16:06:35.253Z,9.52
2023-02-13T16:09:04.509Z,11.40
2023-02-13T16:11:41.582Z,10.55
2023-02-13T16:14:38.550Z,11.32
2023-02-13T16:17:15.092Z,11.60
2023-02-13T16:19:53.819Z,8.73
2023-02-13T16:22:33.185Z,7.72
2023-02-13T16:25:14.289Z,9.68
2023-02-13T16:27:43.683Z,10.45
2023-02-13T16:30:43.836Z,12.10
2023-02-13T16:33:17.094Z,24.30
2023-02-13T16:35:45.526Z,14.75
2023-02-13T16:38:31.209Z,14.13
2023-02-13T16:41:25.478Z,23.30
2023-02-13T16:43:54.570Z,21.67
2023-02-13T16:46:31.749Z,15.88
2023-02-13T16:49:01.681Z,10.07
2023-02-13T16:51:46.354Z,10.73
2023-02-13T16:54:28.559Z,10.32
2023-02-13T16:57:18.443Z,9.23
2023-02-13T16:59:48.831Z,11.10
2023-02-13T17:02:17.647Z,12.85
2023-02-13T17:04:54.242Z,12.18
2023-02-13T17:07:25.498Z,16.38
2023-02-13T17:09:54.967Z,22.50
2023-02-13T17:12:23.220Z,23.73
2023-02-13T17:14:50.421Z,16.38
2023-02-13T17:17:20.506Z,19.88
2023-02-13T17:19:48.645Z,26.85
2023-02-13T17:22:25.301Z,17.13
2023-02-13T17:24:55.273Z,13.57
2023-02-13T17:27:22.892Z,15.40
2023-02-13T17:29:49.965Z,15.52
2023-02-13T17:32:23.665Z,16.50
2023-02-13T17:34:53.559Z,18.02
2023-02-13T17:37:26.282Z,17.30
2023-02-13T17:39:57.050Z,14.32
2023-02-13T17:42:26.986Z,15.40
2023-02-13T17:44:56.328Z,15.02
2023-02-13T17:47:23.994Z,24.85
2023-02-13T17:49:55.129Z,15.05
2023-02-13T17:52:30.981Z,19.33
2023-02-13T17:57:25.870Z,16.83
2023-02-13T17:59:53.107Z,21.17
2023-02-13T18:02:22.533Z,19.63
2023-02-13T18:04:50.399Z,15.65
2023-02-13T18:07:20.667Z,13.38
2023-02-13T18:09:48.181Z,13.60
2023-02-13T18:12:22.643Z,16.25
2023-02-13T18:14:51.338Z,14.15
2023-02-13T18:17:20.765Z,13.30
2023-02-13T18:19:50.687Z,14.30
2023-02-13T18:22:18.544Z,14.30
2023-02-13T18:24:46.550Z,14.88
2023-02-13T18:27:16.544Z,13.25
2023-02-13T18:29:43.552Z,14.68
2023-02-13T18:32:11.557Z,15.23
2023-02-13T18:34:40.519Z,16.67
2023-02-13T18:37:09.739Z,16.20
2023-02-13T18:39:36.955Z,14.85
2023-02-13T18:42:05.887Z,16.20
2023-02-13T18:44:35.317Z,28.33
2023-02-13T18:47:02.395Z,28.35
2023-02-13T18:49:31.221Z,29.08
2023-02-13T18:51:59.390Z,67.47
2023-02-13T18:54:26.384Z,28.75
2023-02-13T18:56:55.066Z,26.02
2023-02-13T18:59:23.382Z,22.55
2023-02-13T19:01:50.773Z,19.55
2023-02-13T19:04:17.848Z,24.55
2023-02-13T19:06:45.266Z,19.23
2023-02-13T19:09:12.559Z,16.77
2023-02-13T19:11:41.173Z,15.68
2023-02-13T19:14:08.656Z,14.80
2023-02-13T19:16:36.456Z,16.90
2023-02-13T19:19:05.756Z,15.00
2023-02-13T19:21:36.577Z,14.20
2023-02-13T19:24:06.203Z,15.02
2023-02-13T19:26:35.400Z,16.30
2023-02-13T19:29:02.578Z,15.38
2023-02-13T19:31:31.387Z,16.48
2023-02-13T19:34:00.780Z,17.58
2023-02-13T19:36:30.315Z,18.50
2023-02-13T19:39:03.967Z,17.38
2023-02-13T19:41:32.372Z,15.73
2023-02-13T19:44:01.231Z,18.60
2023-02-13T19:46:32.867Z,16.88
2023-02-13T19:49:00.749Z,14.23
2023-02-13T19:51:30.380Z,14.43
2023-02-13T19:53:59.817Z,13.40
2023-02-13T19:56:28.807Z,12.88
2023-02-13T19:58:55.964Z,15.60
2023-02-13T20:01:24.953Z,18.17
2023-02-13T20:03:53.143Z,19.05
2023-02-13T20:06:26.152Z,20.10
2023-02-13T20:08:53.513Z,22.52
2023-02-13T20:11:22.228Z,28.02
2023-02-13T20:13:55.994Z,26.88
2023-02-13T20:16:23.755Z,26.30
2023-02-13T20:18:52.075Z,31.95
2023-02-13T20:21:20.219Z,27.77
2023-02-13T20:23:50.686Z,25.20
2023-02-13T20:26:19.142Z,29.90
2023-02-13T20:28:48.180Z,29.58
2023-02-13T20:31:17.810Z,27.67
2023-02-13T20:33:45.375Z,25.02
2023-02-13T20:36:24.309Z,22.35
2023-02-13T20:38:57.671Z,18.75
2023-02-13T20:41:27.470Z,18.67
2023-02-13T20:44:01.124Z,18.33
2023-02-13T20:46:32.892Z,20.27
2023-02-13T20:48:59.879Z,21.08
2023-02-13T20:51:27.990Z,19.20
2023-02-13T20:53:56.474Z,20.10
2023-02-13T20:56:25.426Z,21.52
2023-02-13T20:58:57.245Z,22.92
2023-02-13T21:01:28.462Z,31.98
2023-02-13T21:03:57.351Z,29.25
2023-02-13T21:06:29.928Z,25.05
2023-02-13T21:08:57.415Z,25.67
2023-02-13T21:11:27.619Z,23.67
2023-02-13T21:13:54.514Z,23.08
2023-02-13T21:16:24.929Z,22.40
2023-02-13T21:18:54.325Z,20.50
2023-02-13T21:21:24.769Z,21.17
2023-02-13T21:24:01.444Z,21.65
2023-02-13T21:26:29.281Z,23.48
2023-02-13T21:28:56.607Z,32.15
2023-02-13T21:31:30.628Z,31.17
2023-02-13T21:33:59.985Z,28.73
2023-02-13T21:36:27.497Z,29.98
2023-02-13T21:38:57.390Z,22.92
2023-02-13T21:41:24.501Z,21.92
2023-02-13T21:43:52.000Z,21.30
2023-02-13T21:46:24.734Z,28.08
2023-02-13T21:49:00.695Z,20.08
2023-02-13T21:51:30.224Z,27.90
2023-02-13T21:53:58.988Z,24.65
2023-02-13T21:56:32.212Z,20.13
2023-02-13T21:59:00.290Z,18.63
2023-02-13T22:01:36.306Z,15.88
2023-02-13T22:04:06.165Z,16.88
2023-02-13T22:06:35.687Z,15.18
2023-02-13T22:09:14.740Z,33.85
2023-02-13T22:11:43.099Z,25.60
2023-02-13T22:14:17.322Z,21.23
2023-02-13T22:16:46.853Z,34.20
2023-02-13T22:19:16.060Z,28.73
2023-02-13T22:21:43.627Z,20.90
2023-02-13T22:24:11.047Z,28.85
2023-02-13T22:26:40.322Z,28.27
2023-02-13T22:29:11.282Z,32.22
2023-02-13T22:31:38.723Z,28.48
2023-02-13T22:34:06.262Z,25.17
2023-02-13T22:36:40.191Z,24.58
2023-02-13T22:39:09.797Z,25.13
2023-02-13T22:41:37.937Z,23.65
2023-02-13T22:44:06.436Z,23.70
2023-02-13T22:46:34.816Z,23.60
2023-02-13T22:49:02.409Z,21.95
2023-02-13T22:51:32.757Z,23.60
2023-02-13T22:54:00.448Z,21.65
2023-02-13T22:56:30.329Z,19.42
2023-02-13T22:58:58.193Z,20.40
2023-02-13T23:01:27.285Z,23.90
2023-02-13T23:03:55.305Z,20.20
2023-02-13T23:06:23.096Z,20.45
2023-02-13T23:08:53.767Z,19.60
2023-02-13T23:11:43.904Z,18.10
2023-02-13T23:14:11.881Z,15.90
2023-02-13T23:16:58.974Z,15.23
2023-02-13T23:19:27.692Z,13.52
2023-02-13T23:21:55.128Z,13.32
2023-02-13T23:24:22.351Z,15.27
2023-02-13T23:26:50.245Z,14.40
2023-02-13T23:29:17.268Z,13.57
2023-02-13T23:31:44.719Z,15.93
2023-02-13T23:34:13.177Z,14.05
2023-02-13T23:36:40.153Z,14.35
2023-02-13T23:39:07.567Z,17.83
2023-02-13T23:41:34.778Z,18.88
2023-02-13T23:44:01.809Z,18.50
2023-02-13T23:46:30.461Z,17.55
2023-02-13T23:48:57.809Z,17.00
2023-02-13T23:51:26.116Z,18.40
2023-02-13T23:53:56.751Z,15.40
2023-02-13T23:56:24.924Z,13.80
2023-02-13T23:58:52.729Z,12.50
